createdAt,value
2024-01-19T00:01:45.353Z,26.10
2024-01-19T00:04:12.112Z,28.30
2024-01-19T00:06:40.591Z,27.10
2024-01-19T00:09:08.551Z,29.80
2024-01-19T00:11:35.441Z,24.80
2024-01-19T00:14:02.236Z,26.10
2024-01-19T00:16:29.091Z,25.20
2024-01-19T00:18:56.165Z,26.80
2024-01-19T00:21:22.964Z,28.40
2024-01-19T00:23:51.246Z,30.40
2024-01-19T00:26:18.167Z,23.90
2024-01-19T00:28:46.765Z,29.60
2024-01-19T00:31:13.604Z,28.80
2024-01-19T00:33:40.472Z,28.50
2024-01-19T00:36:07.607Z,26.80
2024-01-19T00:38:34.543Z,26.00
2024-01-19T00:41:05.558Z,23.60
2024-01-19T00:43:32.900Z,28.70
2024-01-19T00:45:59.761Z,27.80
2024-01-19T00:48:26.713Z,26.80
2024-01-19T00:50:53.694Z,26.90
2024-01-19T00:53:20.655Z,24.80
2024-01-19T00:55:47.481Z,25.30
2024-01-19T00:58:15.569Z,27.20
2024-01-19T01:00:42.645Z,27.20
2024-01-19T01:03:09.861Z,24.20
2024-01-19T01:05:36.892Z,26.60
2024-01-19T01:08:03.984Z,27.60
2024-01-19T01:10:30.815Z,25.40
2024-01-19T01:12:58.840Z,25.00
2024-01-19T01:15:25.642Z,24.60
2024-01-19T01:17:52.525Z,25.20
2024-01-19T01:20:21.877Z,26.70
2024-01-19T01:22:48.930Z,24.60
2024-01-19T01:25:15.814Z,26.50
2024-01-19T01:27:42.783Z,26.90
2024-01-19T01:30:11.189Z,27.90
2024-01-19T01:32:38.121Z,26.90
2024-01-19T01:35:05.879Z,29.10
2024-01-19T01:37:32.726Z,25.80
2024-01-19T01:39:59.550Z,27.70
2024-01-19T01:42:26.375Z,28.00
2024-01-19T01:44:53.346Z,28.10
2024-01-19T01:47:20.323Z,31.30
2024-01-19T01:49:47.534Z,33.80
2024-01-19T01:52:14.437Z,29.90
2024-01-19T01:54:41.225Z,31.00
2024-01-19T01:57:08.592Z,29.50
2024-01-19T01:59:35.528Z,29.90
2024-01-19T02:02:02.389Z,26.70
2024-01-19T02:04:29.920Z,27.30
2024-01-19T02:06:57.107Z,31.20
2024-01-19T02:09:24.009Z,29.20
2024-01-19T02:11:51.194Z,29.40
2024-01-19T02:14:18.296Z,27.20
2024-01-19T02:16:45.244Z,27.60
2024-01-19T02:19:12.191Z,26.70
2024-01-19T02:21:39.080Z,28.20
2024-01-19T02:24:12.261Z,26.80
2024-01-19T02:26:39.937Z,29.90
2024-01-19T02:29:06.820Z,28.50
2024-01-19T02:31:33.822Z,27.50
2024-01-19T02:34:00.805Z,26.10
2024-01-19T02:36:27.699Z,27.30
2024-01-19T02:38:54.731Z,25.70
2024-01-19T02:41:21.838Z,27.30
2024-01-19T02:43:48.647Z,26.50
2024-01-19T02:46:16.715Z,31.40
2024-01-19T02:48:43.831Z,27.60
2024-01-19T02:51:10.771Z,28.80
2024-01-19T02:53:37.721Z,28.20
2024-01-19T02:56:05.722Z,25.80
2024-01-19T02:58:32.633Z,30.20
2024-01-19T03:01:00.921Z,26.60
2024-01-19T03:03:28.016Z,31.10
2024-01-19T03:05:54.972Z,27.80
2024-01-19T03:08:23.550Z,31.10
2024-01-19T03:10:50.584Z,30.40
2024-01-19T03:13:17.377Z,25.60
2024-01-19T03:15:44.370Z,27.60
2024-01-19T03:18:11.388Z,25.70
2024-01-19T03:20:38.352Z,27.50
2024-01-19T03:23:07.051Z,24.50
2024-01-19T03:25:34.668Z,27.10
2024-01-19T03:28:01.528Z,26.70
2024-01-19T03:30:28.493Z,26.00
2024-01-19T03:32:55.657Z,31.20
2024-01-19T03:35:22.661Z,29.30
2024-01-19T03:37:50.037Z,30.30
2024-01-19T03:40:17.133Z,36.30
2024-01-19T03:42:43.977Z,31.20
2024-01-19T03:45:11.098Z,33.80
2024-01-19T03:47:37.954Z,30.80
2024-01-19T03:50:07.301Z,30.90
2024-01-19T03:52:34.595Z,30.80
2024-01-19T03:55:02.083Z,28.50
2024-01-19T03:57:28.876Z,29.70
2024-01-19T03:59:58.183Z,30.40
2024-01-19T04:02:25.063Z,31.10
2024-01-19T04:04:51.903Z,28.50
2024-01-19T04:07:18.804Z,28.50
2024-01-19T04:09:45.977Z,26.90
2024-01-19T04:12:15.690Z,25.90
2024-01-19T04:14:43.689Z,23.90
2024-01-19T04:17:11.670Z,22.10
2024-01-19T04:19:39.642Z,19.10
2024-01-19T04:22:06.772Z,19.90
2024-01-19T04:24:33.702Z,24.10
2024-01-19T04:27:00.640Z,21.30
2024-01-19T04:29:27.676Z,21.60
2024-01-19T04:31:54.770Z,23.70
2024-01-19T04:34:21.573Z,24.50
2024-01-19T04:36:48.448Z,24.90
2024-01-19T04:39:15.232Z,26.50
2024-01-19T04:41:42.048Z,24.00
2024-01-19T04:44:08.965Z,28.20
2024-01-19T04:46:35.737Z,24.90
2024-01-19T04:49:03.783Z,24.50
2024-01-19T04:51:31.106Z,24.20
2024-01-19T04:53:59.961Z,25.10
2024-01-19T04:56:26.951Z,23.70
2024-01-19T04:58:53.879Z,23.60
2024-01-19T05:01:20.755Z,23.40
2024-01-19T05:03:47.522Z,24.30
2024-01-19T05:06:15.195Z,25.00
2024-01-19T05:08:45.344Z,27.80
2024-01-19T05:11:15.500Z,25.30
2024-01-19T05:13:43.180Z,24.40
2024-01-19T05:16:10.982Z,25.50
2024-01-19T05:18:38.278Z,28.60
2024-01-19T05:21:08.198Z,25.40
2024-01-19T05:23:35.157Z,27.60
2024-01-19T05:26:06.193Z,28.80
2024-01-19T05:28:35.190Z,27.40
2024-01-19T05:31:02.228Z,27.50
2024-01-19T05:33:30.525Z,25.70
2024-01-19T05:35:57.663Z,27.50
2024-01-19T05:38:24.696Z,28.30
2024-01-19T05:40:51.593Z,27.80
2024-01-19T05:43:18.600Z,31.40
2024-01-19T05:45:45.466Z,27.80
2024-01-19T05:48:12.505Z,27.00
2024-01-19T05:50:39.338Z,26.00
2024-01-19T05:53:06.219Z,24.20
2024-01-19T05:55:33.029Z,23.20
2024-01-19T05:57:59.819Z,24.70
2024-01-19T06:00:26.760Z,27.30
2024-01-19T06:02:53.601Z,28.90
2024-01-19T06:05:20.727Z,27.90
2024-01-19T06:07:47.673Z,25.50
2024-01-19T06:10:14.620Z,26.10
2024-01-19T06:12:41.485Z,24.60
2024-01-19T06:15:09.057Z,25.10
2024-01-19T06:17:38.621Z,24.10
2024-01-19T06:20:12.470Z,27.00
2024-01-19T06:22:40.103Z,24.80
2024-01-19T06:25:09.255Z,24.10
2024-01-19T06:30:04.289Z,22.50
2024-01-19T06:32:32.374Z,22.00
2024-01-19T06:34:59.504Z,21.10
2024-01-19T06:37:26.464Z,18.40
2024-01-19T06:39:53.275Z,18.40
2024-01-19T06:42:20.532Z,18.40
2024-01-19T06:44:47.495Z,18.60
2024-01-19T06:47:14.344Z,18.20
2024-01-19T06:49:41.254Z,17.90
2024-01-19T06:52:08.282Z,18.10
2024-01-19T06:54:35.222Z,19.40
2024-01-19T06:57:02.780Z,25.90
2024-01-19T06:59:29.892Z,27.40
2024-01-19T07:01:56.905Z,23.50
2024-01-19T07:04:23.688Z,25.50
2024-01-19T07:06:50.927Z,26.40
2024-01-19T07:09:18.813Z,24.80
2024-01-19T07:11:45.672Z,22.20
2024-01-19T07:14:12.627Z,22.80
2024-01-19T07:16:44.920Z,22.80
2024-01-19T07:19:12.819Z,24.70
2024-01-19T07:21:41.048Z,30.30
2024-01-19T07:24:09.226Z,26.80
2024-01-19T07:26:36.340Z,22.20
2024-01-19T07:29:05.855Z,20.30
2024-01-19T07:31:32.706Z,19.90
2024-01-19T07:33:59.802Z,21.70
2024-01-19T07:36:27.661Z,22.20
2024-01-19T07:38:55.583Z,19.20
2024-01-19T07:41:23.025Z,20.70
2024-01-19T07:43:49.925Z,20.60
2024-01-19T07:46:17.022Z,17.50
2024-01-19T07:48:44.260Z,19.10
2024-01-19T07:51:11.215Z,20.30
2024-01-19T07:53:38.133Z,20.40
2024-01-19T07:56:05.722Z,18.00
2024-01-19T07:58:32.577Z,19.10
2024-01-19T08:00:59.459Z,17.40
2024-01-19T08:03:26.695Z,18.40
2024-01-19T08:05:53.511Z,17.40
2024-01-19T08:08:21.163Z,16.30
2024-01-19T08:10:48.082Z,16.10
2024-01-19T08:13:15.343Z,15.50
2024-01-19T08:15:42.226Z,19.60
2024-01-19T08:18:09.341Z,20.00
2024-01-19T08:20:36.267Z,18.40
2024-01-19T08:23:03.984Z,23.60
2024-01-19T08:25:30.882Z,21.40
2024-01-19T08:27:57.814Z,21.20
2024-01-19T08:30:24.711Z,20.70
2024-01-19T08:32:51.583Z,20.50
2024-01-19T08:35:18.546Z,21.20
2024-01-19T08:37:45.418Z,19.70
2024-01-19T08:40:13.287Z,20.10
2024-01-19T08:42:40.633Z,21.90
2024-01-19T08:45:08.644Z,24.90
2024-01-19T08:47:37.229Z,20.50
2024-01-19T08:50:05.194Z,23.70
2024-01-19T08:52:32.151Z,25.20
2024-01-19T08:54:59.430Z,22.50
2024-01-19T08:57:26.746Z,23.70
2024-01-19T08:59:53.817Z,23.20
2024-01-19T09:02:21.536Z,26.40
2024-01-19T09:04:49.932Z,19.70
2024-01-19T09:07:18.617Z,24.20
2024-01-19T09:09:45.606Z,27.30
2024-01-19T09:12:12.541Z,26.50
2024-01-19T09:14:39.344Z,26.10
2024-01-19T09:17:06.168Z,27.20
2024-01-19T09:19:33.282Z,25.60
2024-01-19T09:22:00.830Z,26.50
2024-01-19T09:24:28.477Z,25.40
2024-01-19T09:26:55.474Z,27.00
2024-01-19T09:29:22.304Z,29.20
2024-01-19T09:31:49.172Z,28.00
2024-01-19T09:34:16.569Z,31.10
2024-01-19T09:36:43.606Z,24.80
2024-01-19T09:39:10.777Z,29.50
2024-01-19T09:42:10.718Z,30.80
2024-01-19T09:44:38.545Z,35.40
2024-01-19T09:47:21.797Z,31.60
2024-01-19T09:50:05.877Z,27.10
2024-01-19T09:52:49.308Z,29.90
2024-01-19T09:55:16.895Z,26.90
2024-01-19T09:57:50.141Z,29.40
2024-01-19T10:00:19.519Z,29.60
2024-01-19T10:02:48.478Z,32.60
2024-01-19T10:05:17.379Z,28.90
2024-01-19T10:07:56.548Z,26.50
2024-01-19T10:10:23.679Z,28.40
2024-01-19T10:12:50.497Z,31.00
2024-01-19T10:15:18.199Z,28.60
2024-01-19T10:17:46.754Z,28.20
2024-01-19T10:20:16.619Z,30.50
2024-01-19T10:22:44.175Z,28.50
2024-01-19T10:25:14.643Z,28.40
2024-01-19T10:27:42.683Z,26.90
2024-01-19T10:30:11.556Z,27.60
2024-01-19T10:32:40.456Z,27.90
2024-01-19T10:35:10.325Z,25.40
2024-01-19T10:37:37.710Z,27.70
2024-01-19T10:40:21.939Z,31.10
2024-01-19T10:42:55.361Z,22.10
2024-01-19T10:45:24.097Z,28.00
2024-01-19T10:47:53.247Z,26.60
2024-01-19T10:52:54.552Z,32.20
2024-01-19T10:55:26.573Z,34.40
2024-01-19T10:57:56.681Z,39.80
2024-01-19T11:00:26.494Z,45.60
2024-01-19T11:05:24.628Z,46.60
2024-01-19T11:07:56.219Z,23.40
2024-01-19T11:10:23.780Z,8.80
2024-01-19T11:13:01.683Z,2.90
2024-01-19T11:15:31.355Z,2.60
2024-01-19T11:18:03.567Z,0.80
2024-01-19T11:20:32.883Z,1.00
2024-01-19T11:23:01.377Z,1.00
2024-01-19T11:25:52.628Z,0.90
2024-01-19T11:28:37.587Z,0.80
2024-01-19T11:31:23.660Z,1.10
2024-01-19T11:33:53.969Z,0.50
2024-01-19T11:36:39.514Z,0.80
2024-01-19T11:39:07.321Z,0.50
2024-01-19T11:41:37.491Z,0.40
2024-01-19T11:44:06.520Z,0.40
2024-01-19T11:46:45.516Z,0.20
2024-01-19T11:49:30.960Z,0.80
2024-01-19T11:52:00.335Z,0.40
2024-01-19T11:54:30.379Z,0.40
2024-01-19T11:57:19.801Z,0.50
2024-01-19T11:59:47.392Z,0.50
2024-01-19T12:02:28.805Z,0.50
2024-01-19T12:04:57.804Z,1.40
2024-01-19T12:07:24.690Z,0.40
2024-01-19T12:10:11.324Z,0.30
2024-01-19T12:12:39.341Z,0.10
2024-01-19T12:15:09.092Z,0.50
2024-01-19T12:17:41.957Z,0.60
2024-01-19T12:20:20.254Z,0.40
2024-01-19T12:22:57.080Z,0.40
2024-01-19T12:25:26.898Z,1.20
2024-01-19T12:28:17.212Z,3.90
2024-01-19T12:30:44.058Z,3.90
2024-01-19T12:33:16.324Z,11.10
2024-01-19T12:35:43.781Z,0.80
2024-01-19T12:38:11.044Z,2.00
2024-01-19T12:40:40.131Z,0.80
2024-01-19T12:45:35.641Z,2.60
2024-01-19T12:48:06.433Z,0.90
2024-01-19T12:50:36.873Z,1.30
2024-01-19T12:53:04.007Z,0.90
2024-01-19T12:55:32.513Z,0.70
2024-01-19T12:58:00.241Z,0.90
2024-01-19T13:00:28.982Z,0.40
2024-01-19T13:03:00.088Z,1.30
2024-01-19T13:05:29.322Z,1.50
2024-01-19T13:10:31.186Z,0.50
2024-01-19T13:13:06.667Z,1.00
2024-01-19T13:15:33.816Z,0.60
2024-01-19T13:18:11.501Z,1.90
2024-01-19T13:20:39.594Z,1.00
2024-01-19T13:23:10.742Z,2.00
2024-01-19T13:25:39.129Z,0.40
2024-01-19T13:28:07.413Z,1.30
2024-01-19T13:30:34.522Z,2.90
2024-01-19T13:33:04.339Z,0.40
2024-01-19T13:35:31.735Z,0.20
2024-01-19T13:37:58.702Z,0.30
2024-01-19T13:40:25.749Z,0.30
2024-01-19T13:42:53.084Z,0.80
2024-01-19T13:45:20.478Z,0.20
2024-01-19T13:47:47.363Z,0.60
2024-01-19T13:50:14.309Z,0.30
2024-01-19T13:52:41.365Z,0.60
2024-01-19T13:55:10.122Z,0.40
2024-01-19T13:57:37.040Z,0.60
2024-01-19T14:00:05.024Z,0.80
2024-01-19T14:02:35.243Z,0.40
2024-01-19T14:05:06.037Z,1.20
2024-01-19T14:07:33.353Z,1.40
2024-01-19T14:10:00.355Z,0.70
2024-01-19T14:12:28.216Z,0.40
2024-01-19T14:14:56.744Z,0.50
2024-01-19T14:17:25.181Z,1.60
2024-01-19T14:19:52.429Z,2.90
2024-01-19T14:22:22.499Z,2.80
2024-01-19T14:24:49.851Z,2.50
2024-01-19T14:27:16.748Z,1.10
2024-01-19T14:29:44.960Z,0.40
2024-01-19T14:32:13.670Z,1.00
2024-01-19T14:34:46.480Z,1.30
2024-01-19T14:37:17.463Z,1.80
2024-01-19T14:39:44.335Z,1.40
2024-01-19T14:42:11.349Z,0.80
2024-01-19T14:44:38.275Z,0.60
2024-01-19T14:47:05.954Z,0.80
2024-01-19T14:49:34.403Z,1.10
2024-01-19T14:52:02.598Z,1.00
2024-01-19T14:54:34.846Z,0.90
2024-01-19T14:57:02.449Z,1.50
2024-01-19T14:59:29.304Z,1.80
2024-01-19T15:01:57.904Z,0.60
2024-01-19T15:04:25.789Z,1.20
2024-01-19T15:06:53.003Z,1.70
2024-01-19T15:09:20.017Z,4.80
2024-01-19T15:11:47.093Z,3.10
2024-01-19T15:14:14.139Z,3.30
2024-01-19T15:16:41.886Z,4.30
2024-01-19T15:19:09.949Z,0.90
2024-01-19T15:21:36.841Z,1.90
2024-01-19T15:24:07.846Z,1.60
2024-01-19T15:26:35.100Z,1.30
2024-01-19T15:29:02.084Z,1.90
2024-01-19T15:31:29.025Z,1.20
2024-01-19T15:33:57.805Z,1.20
2024-01-19T15:36:24.911Z,1.30
2024-01-19T15:38:51.711Z,1.30
2024-01-19T15:41:23.855Z,0.60
2024-01-19T15:43:51.082Z,1.10
2024-01-19T15:46:25.091Z,1.10
2024-01-19T15:49:02.996Z,1.40
2024-01-19T15:51:34.277Z,0.70
2024-01-19T15:54:02.038Z,0.90
2024-01-19T15:56:36.318Z,0.80
2024-01-19T15:59:06.891Z,1.00
2024-01-19T16:01:33.986Z,2.80
2024-01-19T16:04:02.699Z,2.20
2024-01-19T16:06:31.179Z,1.50
2024-01-19T16:08:58.434Z,2.60
2024-01-19T16:11:25.563Z,0.80
2024-01-19T16:13:52.431Z,2.30
2024-01-19T16:16:19.317Z,1.30
2024-01-19T16:18:46.586Z,1.10
2024-01-19T16:21:18.969Z,1.50
2024-01-19T16:23:47.077Z,0.50
2024-01-19T16:26:14.668Z,0.80
2024-01-19T16:28:41.767Z,0.60
2024-01-19T16:31:09.857Z,0.50
2024-01-19T16:33:36.652Z,0.80
2024-01-19T16:36:07.722Z,1.40
2024-01-19T16:38:34.914Z,6.30
2024-01-19T16:41:01.910Z,6.80
2024-01-19T16:43:28.867Z,2.90
2024-01-19T16:45:56.115Z,3.40
2024-01-19T16:48:24.059Z,2.10
2024-01-19T16:50:51.706Z,1.30
2024-01-19T16:53:18.608Z,0.80
2024-01-19T16:55:47.226Z,0.80
2024-01-19T16:58:15.465Z,1.70
2024-01-19T17:00:42.977Z,1.30
2024-01-19T17:03:13.641Z,1.70
2024-01-19T17:05:40.553Z,1.10
2024-01-19T17:08:07.634Z,2.00
2024-01-19T17:10:37.740Z,2.80
2024-01-19T17:13:04.894Z,1.80
2024-01-19T17:15:32.891Z,1.50
2024-01-19T17:17:59.984Z,1.80
2024-01-19T17:20:28.520Z,1.20
2024-01-19T17:22:55.602Z,0.40
2024-01-19T17:25:24.130Z,1.30
2024-01-19T17:27:51.626Z,11.30
2024-01-19T17:30:22.727Z,2.30
2024-01-19T17:32:50.635Z,0.70
2024-01-19T17:35:17.812Z,1.50
2024-01-19T17:37:45.573Z,3.60
2024-01-19T17:40:12.529Z,0.90
2024-01-19T17:42:39.461Z,1.80
2024-01-19T17:45:16.246Z,0.90
2024-01-19T17:47:53.633Z,0.90
2024-01-19T17:50:25.340Z,2.80
2024-01-19T17:52:53.176Z,1.30
2024-01-19T17:55:20.519Z,8.70
2024-01-19T17:57:50.466Z,2.10
2024-01-19T18:00:19.197Z,0.80
2024-01-19T18:02:46.201Z,1.00
2024-01-19T18:05:16.182Z,1.00
2024-01-19T18:07:45.111Z,0.70
2024-01-19T18:10:12.211Z,0.80
2024-01-19T18:12:41.032Z,0.70
2024-01-19T18:15:09.830Z,0.50
2024-01-19T18:17:37.283Z,1.00
2024-01-19T18:20:07.860Z,0.90
2024-01-19T18:22:34.899Z,1.80
2024-01-19T18:25:02.066Z,0.90
2024-01-19T18:27:29.636Z,1.00
2024-01-19T18:29:56.716Z,1.00
2024-01-19T18:32:27.919Z,0.50
2024-01-19T18:34:55.103Z,0.80
2024-01-19T18:37:22.002Z,0.50
2024-01-19T18:39:50.574Z,0.60
2024-01-19T18:42:17.390Z,0.80
2024-01-19T18:44:45.126Z,2.00
2024-01-19T18:47:15.050Z,2.60
2024-01-19T18:49:42.045Z,1.70
2024-01-19T18:52:09.483Z,1.20
2024-01-19T18:54:36.503Z,1.40
2024-01-19T18:57:03.567Z,0.40
2024-01-19T18:59:30.532Z,2.80
2024-01-19T19:01:58.112Z,0.50
2024-01-19T19:04:25.091Z,0.30
2024-01-19T19:06:52.171Z,0.50
2024-01-19T19:09:21.019Z,0.70
2024-01-19T19:11:47.839Z,0.50
2024-01-19T19:14:16.239Z,0.50
2024-01-19T19:16:47.942Z,1.40
2024-01-19T19:19:16.999Z,0.70
2024-01-19T19:21:44.186Z,0.80
2024-01-19T19:24:11.458Z,0.50
2024-01-19T19:26:39.389Z,0.50
2024-01-19T19:29:07.581Z,0.70
2024-01-19T19:31:34.637Z,0.80
2024-01-19T19:34:02.001Z,0.80
2024-01-19T19:36:33.220Z,0.60
2024-01-19T19:39:05.044Z,0.50
2024-01-19T19:41:33.177Z,0.70
2024-01-19T19:44:00.065Z,0.90
2024-01-19T19:46:26.963Z,0.70
2024-01-19T19:48:56.846Z,0.60
2024-01-19T19:51:30.688Z,1.00
2024-01-19T19:53:58.122Z,0.90
2024-01-19T19:56:26.298Z,0.70
2024-01-19T19:58:53.350Z,0.80
2024-01-19T20:01:20.308Z,0.90
2024-01-19T20:03:47.186Z,0.80
2024-01-19T20:06:14.003Z,0.60
2024-01-19T20:08:41.076Z,0.20
2024-01-19T20:11:08.093Z,1.70
2024-01-19T20:13:35.416Z,0.90
2024-01-19T20:16:03.576Z,0.50
2024-01-19T20:18:31.220Z,0.50
2024-01-19T20:21:00.014Z,0.50
2024-01-19T20:23:27.203Z,1.00
2024-01-19T20:25:54.058Z,0.90
2024-01-19T20:28:22.256Z,1.70
2024-01-19T20:30:49.692Z,0.80
2024-01-19T20:33:17.516Z,0.50
2024-01-19T20:35:44.737Z,0.80
2024-01-19T20:38:11.956Z,1.50
2024-01-19T20:40:39.088Z,2.10
2024-01-19T20:43:07.475Z,2.10
2024-01-19T20:45:34.653Z,1.60
2024-01-19T20:48:01.611Z,3.10
2024-01-19T20:50:28.635Z,3.30
2024-01-19T20:52:55.477Z,3.00
2024-01-19T20:55:22.641Z,4.70
2024-01-19T20:57:49.462Z,3.60
2024-01-19T21:00:17.299Z,5.30
2024-01-19T21:02:44.616Z,3.70
2024-01-19T21:05:12.582Z,4.00
2024-01-19T21:07:39.777Z,5.20
2024-01-19T21:10:08.175Z,4.40
2024-01-19T21:12:35.538Z,2.70
2024-01-19T21:15:07.906Z,2.60
2024-01-19T21:17:34.715Z,5.00
2024-01-19T21:20:01.775Z,4.40
2024-01-19T21:22:28.817Z,3.90
2024-01-19T21:24:56.237Z,3.20
2024-01-19T21:27:23.034Z,2.80
2024-01-19T21:29:49.815Z,3.00
2024-01-19T21:32:16.960Z,2.30
2024-01-19T21:34:43.969Z,2.90
2024-01-19T21:37:11.225Z,1.60
2024-01-19T21:39:39.062Z,2.30
2024-01-19T21:42:06.794Z,3.10
2024-01-19T21:44:35.209Z,1.20
2024-01-19T21:47:05.198Z,3.00
2024-01-19T21:49:32.635Z,1.60
2024-01-19T21:51:59.522Z,3.40
2024-01-19T21:54:27.450Z,2.40
2024-01-19T21:56:54.675Z,1.70
2024-01-19T21:59:21.801Z,0.80
2024-01-19T22:01:49.677Z,3.60
2024-01-19T22:04:18.189Z,1.60
2024-01-19T22:06:45.337Z,1.60
2024-01-19T22:09:13.104Z,3.60
2024-01-19T22:11:47.118Z,2.40
2024-01-19T22:14:22.326Z,4.00
2024-01-19T22:16:49.641Z,2.80
2024-01-19T22:19:16.471Z,2.80
2024-01-19T22:21:43.579Z,3.20
2024-01-19T22:24:12.456Z,3.00
2024-01-19T22:26:40.079Z,2.00
2024-01-19T22:29:07.163Z,1.80
2024-01-19T22:31:34.717Z,1.50
2024-01-19T22:34:02.004Z,0.90
2024-01-19T22:36:30.889Z,0.70
2024-01-19T22:38:58.657Z,1.40
2024-01-19T22:41:26.865Z,2.50
2024-01-19T22:43:54.159Z,1.60
2024-01-19T22:46:21.250Z,2.50
2024-01-19T22:48:49.125Z,2.90
2024-01-19T22:51:16.174Z,1.80
2024-01-19T22:53:44.085Z,3.00
2024-01-19T22:56:11.535Z,1.60
2024-01-19T22:58:39.406Z,2.30
2024-01-19T23:01:09.931Z,2.20
2024-01-19T23:03:37.038Z,1.30
2024-01-19T23:06:04.981Z,1.50
2024-01-19T23:08:31.849Z,2.00
2024-01-19T23:10:58.846Z,0.90
2024-01-19T23:13:25.730Z,1.10
2024-01-19T23:15:52.534Z,1.40
2024-01-19T23:18:20.253Z,1.30
2024-01-19T23:20:48.153Z,1.10
2024-01-19T23:23:15.485Z,2.70
2024-01-19T23:25:42.541Z,1.30
2024-01-19T23:28:10.745Z,1.00
2024-01-19T23:30:38.282Z,0.90
2024-01-19T23:33:05.628Z,1.10
2024-01-19T23:35:33.706Z,1.50
2024-01-19T23:38:02.241Z,1.10
2024-01-19T23:40:30.221Z,1.40
2024-01-19T23:42:57.354Z,1.00
2024-01-19T23:45:27.420Z,1.50
2024-01-19T23:47:55.407Z,1.60
2024-01-19T23:50:23.331Z,1.50
2024-01-19T23:52:51.168Z,1.50
2024-01-19T23:55:19.461Z,1.80
2024-01-19T23:57:46.721Z,0.90
